Time,TemperatureF,DewpointF,PressureIn,WindDirection,WindDirectionDegrees,WindSpeedMPH,WindSpeedGustMPH,Humidity,HourlyPrecipIn,Conditions,Clouds,dailyrainin,SoftwareType,DateUTC
2013-09-14 00:00:00,59.0,53.2,29.83,West,270,0.0,1.0,81,0.00,,,0.00,VWS V14.01,2013-09-14 07:00:00,
2013-09-14 00:30:00,58.2,52.7,29.83,WSW,248,0.0,1.0,82,0.00,,,0.00,VWS V14.01,2013-09-14 07:30:00,
2013-09-14 01:00:00,57.6,52.5,29.82,WSW,248,0.0,0.0,83,0.00,,,0.00,VWS V14.01,2013-09-14 08:00:00,
2013-09-14 01:30:00,57.5,52.7,29.82,North,0,0.0,1.0,84,0.00,,,0.00,VWS V14.01,2013-09-14 08:30:00,
2013-09-14 02:00:00,56.7,52.2,29.82,SSW,202,0.0,1.0,85,0.00,,,0.00,VWS V14.01,2013-09-14 09:00:00,
2013-09-14 02:30:00,56.6,52.2,29.82,SW,225,0.0,1.0,85,0.00,,,0.00,VWS V14.01,2013-09-14 09:30:00,
2013-09-14 03:00:00,57.0,52.5,29.81,West,270,0.0,2.0,85,0.00,,,0.00,VWS V14.01,2013-09-14 10:00:00,
2013-09-14 03:30:00,56.8,52.7,29.82,West,270,0.0,1.0,86,0.00,,,0.00,VWS V14.01,2013-09-14 10:30:00,
2013-09-14 04:00:00,55.3,51.5,29.82,WNW,292,0.0,1.0,87,0.00,,,0.00,VWS V14.01,2013-09-14 11:00:00,
2013-09-14 04:30:00,54.3,51.1,29.82,WNW,292,0.0,0.0,89,0.00,,,0.00,VWS V14.01,2013-09-14 11:30:00,
2013-09-14 05:00:00,53.5,50.6,29.82,WNW,292,0.0,0.0,90,0.00,,,0.00,VWS V14.01,2013-09-14 12:00:00,
2013-09-14 05:30:00,52.6,50.0,29.83,WNW,292,0.0,0.0,91,0.00,,,0.00,VWS V14.01,2013-09-14 12:30:00,
2013-09-14 06:00:00,52.3,50.0,29.83,WNW,292,0.0,0.0,92,0.00,,,0.00,VWS V14.01,2013-09-14 13:00:00,
2013-09-14 06:30:00,52.0,49.8,29.84,WNW,292,0.0,0.0,92,0.00,,,0.00,VWS V14.01,2013-09-14 13:30:00,
2013-09-14 07:00:00,52.0,50.0,29.84,WNW,292,0.0,0.0,93,0.00,,,0.00,VWS V14.01,2013-09-14 14:00:00,
2013-09-14 07:30:00,51.8,50.1,29.85,WNW,292,0.0,0.0,94,0.00,,,0.00,VWS V14.01,2013-09-14 14:30:00,
2013-09-14 08:00:00,52.7,51.0,29.85,WNW,292,0.0,1.0,94,0.00,,,0.00,VWS V14.01,2013-09-14 15:00:00,
2013-09-14 08:30:00,54.7,53.0,29.86,WNW,292,0.0,0.0,94,0.00,,,0.00,VWS V14.01,2013-09-14 15:30:00,
2013-09-14 09:00:00,59.3,56.1,29.86,East,90,0.0,1.0,89,0.00,,,0.00,VWS V14.01,2013-09-14 16:00:00,
2013-09-14 09:30:00,65.8,57.3,29.86,WSW,248,1.0,3.0,74,0.00,,,0.00,VWS V14.01,2013-09-14 16:30:00,
2013-09-14 10:00:00,68.8,57.4,29.86,West,270,2.0,8.0,67,0.00,,,0.00,VWS V14.01,2013-09-14 17:00:00,
2013-09-14 10:30:00,69.7,57.0,29.87,West,270,2.0,10.0,64,0.00,,,0.00,VWS V14.01,2013-09-14 17:30:00,
2013-09-14 11:00:00,71.6,57.5,29.87,West,270,2.0,9.0,61,0.00,,,0.00,VWS V14.01,2013-09-14 18:00:00,
2013-09-14 11:30:00,72.1,57.5,29.87,West,270,2.0,10.0,60,0.00,,,0.00,VWS V14.01,2013-09-14 18:30:00,
2013-09-14 12:00:00,73.5,58.3,29.86,West,270,2.0,9.0,59,0.00,,,0.00,VWS V14.01,2013-09-14 19:00:00,
2013-09-14 12:30:00,74.4,57.7,29.85,West,270,2.0,8.0,56,0.00,,,0.00,VWS V14.01,2013-09-14 19:30:00,
2013-09-14 13:00:00,75.6,59.3,29.84,West,270,2.0,8.0,57,0.00,,,0.00,VWS V14.01,2013-09-14 20:00:00,
2013-09-14 13:30:00,76.6,58.7,29.84,West,270,2.0,9.0,54,0.00,,,0.00,VWS V14.01,2013-09-14 20:30:00,
2013-09-14 14:00:00,76.9,59.5,29.82,SSW,202,3.0,9.0,55,0.00,,,0.00,VWS V14.01,2013-09-14 21:00:00,
2013-09-14 14:30:00,78.0,59.5,29.82,ESE,112,2.0,9.0,53,0.00,,,0.00,VWS V14.01,2013-09-14 21:30:00,
2013-09-14 15:00:00,79.1,58.9,29.81,West,270,2.0,8.0,50,0.00,,,0.00,VWS V14.01,2013-09-14 22:00:00,
2013-09-14 15:30:00,80.5,59.0,29.80,West,270,2.0,9.0,48,0.00,,,0.00,VWS V14.01,2013-09-14 22:30:00,
2013-09-14 16:00:00,79.5,58.7,29.79,West,270,2.0,10.0,49,0.00,,,0.00,VWS V14.01,2013-09-14 23:00:00,
2013-09-14 16:30:00,78.4,58.2,29.78,WSW,248,2.0,6.0,50,0.00,,,0.00,VWS V14.01,2013-09-14 23:30:00,
2013-09-14 17:00:00,77.1,57.0,29.78,West,270,2.0,8.0,50,0.00,,,0.00,VWS V14.01,2013-09-15 00:00:00,
2013-09-14 17:30:00,76.6,56.6,29.78,West,270,2.0,8.0,50,0.00,,,0.00,VWS V14.01,2013-09-15 00:30:00,
2013-09-14 18:00:00,76.5,55.9,29.77,West,270,1.0,8.0,49,0.00,,,0.00,VWS V14.01,2013-09-15 01:00:00,
2013-09-14 18:51:00,76.5,55.9,29.77,West,270,1.0,8.0,49,0.00,,,0.00,VWS V14.01,2013-09-15 01:51:00,
2013-09-14 18:56:00,72.3,55.7,29.78,WSW,245,1.0,3.0,56,0.00,,,0.00,VWS V14.01,2013-09-15 01:56:00,
2013-09-14 19:01:00,71.9,55.9,29.78,ESE,121,1.0,2.0,57,0.00,,,0.00,VWS V14.01,2013-09-15 02:01:00,
2013-09-14 19:06:00,71.5,55.5,29.79,WSW,246,1.0,3.0,57,0.00,,,0.00,VWS V14.01,2013-09-15 02:06:00,
2013-09-14 19:11:00,71.1,55.1,29.78,South,173,0.0,3.0,57,0.00,,,0.00,VWS V14.01,2013-09-15 02:11:00,
2013-09-14 19:16:00,70.7,54.7,29.78,SW,236,0.0,3.0,57,0.00,,,0.00,VWS V14.01,2013-09-15 02:16:00,
2013-09-14 19:21:00,70.3,54.8,29.78,SSW,203,0.0,4.0,58,0.00,,,0.00,VWS V14.01,2013-09-15 02:21:00,
2013-09-14 19:26:00,69.9,54.5,29.78,WNW,288,1.0,4.0,58,0.00,,,0.00,VWS V14.01,2013-09-15 02:26:00,
2013-09-14 19:31:00,69.6,53.7,29.78,West,269,1.0,4.0,57,0.00,,,0.00,VWS V14.01,2013-09-15 02:31:00,
2013-09-14 19:36:00,69.4,53.0,29.78,WSW,255,1.0,5.0,56,0.00,,,0.00,VWS V14.01,2013-09-15 02:36:00,
2013-09-14 19:41:00,69.2,52.8,29.78,WNW,287,0.0,5.0,56,0.00,,,0.00,VWS V14.01,2013-09-15 02:41:00,
2013-09-14 19:46:00,68.9,53.1,29.78,West,278,1.0,5.0,57,0.00,,,0.00,VWS V14.01,2013-09-15 02:46:00,
2013-09-14 19:51:00,68.3,53.9,29.79,WNW,285,0.0,5.0,60,0.00,,,0.00,VWS V14.01,2013-09-15 02:51:00,
2013-09-14 19:56:00,67.6,53.2,29.79,NW,324,0.0,5.0,60,0.00,,,0.00,VWS V14.01,2013-09-15 02:56:00,
2013-09-14 20:01:00,67.5,52.7,29.79,West,273,0.0,3.0,59,0.00,,,0.00,VWS V14.01,2013-09-15 03:01:00,
2013-09-14 20:06:00,67.2,52.4,29.79,WNW,285,0.0,3.0,59,0.00,,,0.00,VWS V14.01,2013-09-15 03:06:00,
2013-09-14 20:11:00,66.9,53.9,29.79,West,276,0.0,3.0,63,0.00,,,0.00,VWS V14.01,2013-09-15 03:11:00,
2013-09-14 20:16:00,66.2,53.7,29.79,NE,47,0.0,3.0,64,0.00,,,0.00,VWS V14.01,2013-09-15 03:16:00,
2013-09-14 20:21:00,65.5,53.8,29.79,NE,46,0.0,3.0,66,0.00,,,0.00,VWS V14.01,2013-09-15 03:21:00,
2013-09-14 20:26:00,64.9,54.1,29.80,NE,49,0.0,3.0,68,0.00,,,0.00,VWS V14.01,2013-09-15 03:26:00,
2013-09-14 20:31:00,64.3,53.9,29.80,WSW,250,0.0,1.0,69,0.00,,,0.00,VWS V14.01,2013-09-15 03:31:00,
2013-09-14 20:36:00,63.8,54.2,29.80,North,353,0.0,1.0,71,0.00,,,0.00,VWS V14.01,2013-09-15 03:36:00,
2013-09-14 20:41:00,63.4,54.2,29.80,WSW,246,0.0,1.0,72,0.00,,,0.00,VWS V14.01,2013-09-15 03:41:00,
2013-09-14 20:46:00,63.0,53.8,29.80,West,274,0.0,1.0,72,0.00,,,0.00,VWS V14.01,2013-09-15 03:46:00,
2013-09-14 20:51:00,62.6,53.5,29.80,NW,315,0.0,1.0,72,0.00,,,0.00,VWS V14.01,2013-09-15 03:51:00,
2013-09-14 20:56:00,62.4,53.6,29.80,NW,315,0.0,1.0,73,0.00,,,0.00,VWS V14.01,2013-09-15 03:56:00,
2013-09-14 21:01:00,62.1,53.3,29.80,North,355,0.0,1.0,73,0.00,,,0.00,VWS V14.01,2013-09-15 04:01:00,
2013-09-14 21:06:00,62.0,53.3,29.80,West,260,0.0,1.0,73,0.00,,,0.00,VWS V14.01,2013-09-15 04:06:00,
2013-09-14 21:11:00,61.9,53.2,29.80,NNW,338,0.0,1.0,73,0.00,,,0.00,VWS V14.01,2013-09-15 04:11:00,
2013-09-14 21:16:00,61.8,53.1,29.80,NW,316,0.0,2.0,73,0.00,,,0.00,VWS V14.01,2013-09-15 04:16:00,
2013-09-14 21:21:00,61.7,53.0,29.80,SW,214,0.0,3.0,73,0.00,,,0.00,VWS V14.01,2013-09-15 04:21:00,
2013-09-14 21:26:00,61.5,52.8,29.81,SW,229,0.0,3.0,73,0.00,,,0.00,VWS V14.01,2013-09-15 04:26:00,
2013-09-14 21:31:00,61.2,52.9,29.81,WSW,242,0.0,1.0,74,0.00,,,0.00,VWS V14.01,2013-09-15 04:31:00,
2013-09-14 21:36:00,61.0,53.0,29.81,SW,221,0.0,1.0,75,0.00,,,0.00,VWS V14.01,2013-09-15 04:36:00,
2013-09-14 21:41:00,60.6,53.0,29.81,WNW,286,0.0,1.0,76,0.00,,,0.00,VWS V14.01,2013-09-15 04:41:00,
2013-09-14 21:46:00,60.3,52.7,29.81,NNW,328,0.0,1.0,76,0.00,,,0.00,VWS V14.01,2013-09-15 04:46:00,
2013-09-14 21:51:00,60.0,52.8,29.81,West,276,0.0,1.0,77,0.00,,,0.00,VWS V14.01,2013-09-15 04:51:00,
2013-09-14 21:56:00,59.7,52.8,29.81,WSW,253,0.0,1.0,78,0.00,,,0.00,VWS V14.01,2013-09-15 04:56:00,
2013-09-14 22:01:00,59.4,52.5,29.81,WSW,253,0.0,0.0,78,0.00,,,0.00,VWS V14.01,2013-09-15 05:01:00,
2013-09-14 22:06:00,59.0,52.2,29.81,SSW,204,0.0,0.0,78,0.00,,,0.00,VWS V14.01,2013-09-15 05:06:00,
2013-09-14 22:11:00,58.7,52.6,29.81,SSW,204,0.0,0.0,80,0.00,,,0.00,VWS V14.01,2013-09-15 05:11:00,
2013-09-14 22:16:00,58.4,52.3,29.81,SSW,205,0.0,0.0,80,0.00,,,0.00,VWS V14.01,2013-09-15 05:16:00,
2013-09-14 22:21:00,58.1,52.3,29.81,SSW,207,0.0,0.0,81,0.00,,,0.00,VWS V14.01,2013-09-15 05:21:00,
2013-09-14 22:26:00,57.8,52.3,29.81,NNE,23,0.0,1.0,82,0.00,,,0.00,VWS V14.01,2013-09-15 05:26:00,
2013-09-14 22:31:00,57.7,52.2,29.81,NNE,23,0.0,0.0,82,0.00,,,0.00,VWS V14.01,2013-09-15 05:31:00,
2013-09-14 22:36:00,57.5,52.1,29.81,NNE,32,0.0,0.0,82,0.00,,,0.00,VWS V14.01,2013-09-15 05:36:00,
2013-09-14 22:41:00,57.4,52.0,29.81,NNE,31,0.0,1.0,82,0.00,,,0.00,VWS V14.01,2013-09-15 05:41:00,
2013-09-14 22:46:00,57.4,52.0,29.81,SSW,208,0.0,1.0,82,0.00,,,0.00,VWS V14.01,2013-09-15 05:46:00,
2013-09-14 22:51:00,57.4,52.0,29.81,SSW,208,0.0,1.0,82,0.00,,,0.00,VWS V14.01,2013-09-15 05:51:00,
2013-09-14 22:56:00,57.4,52.3,29.81,SSW,208,0.0,1.0,83,0.00,,,0.00,VWS V14.01,2013-09-15 05:56:00,
2013-09-14 23:01:00,57.4,52.3,29.82,SSW,210,0.0,1.0,83,0.00,,,0.00,VWS V14.01,2013-09-15 06:01:00,
2013-09-14 23:06:00,57.5,52.4,29.81,WSW,238,0.0,1.0,83,0.00,,,0.00,VWS V14.01,2013-09-15 06:06:00,
2013-09-14 23:11:00,57.5,52.4,29.82,West,273,0.0,1.0,83,0.00,,,0.00,VWS V14.01,2013-09-15 06:11:00,
2013-09-14 23:16:00,57.4,52.3,29.82,West,259,2.0,2.0,83,0.00,,,0.00,VWS V14.01,2013-09-15 06:16:00,
2013-09-14 23:21:00,57.4,52.3,29.82,WNW,298,0.0,2.0,83,0.00,,,0.00,VWS V14.01,2013-09-15 06:21:00,
2013-09-14 23:26:00,57.3,52.2,29.82,WNW,298,0.0,2.0,83,0.00,,,0.00,VWS V14.01,2013-09-15 06:26:00,
2013-09-14 23:31:00,57.2,52.1,29.82,WNW,298,0.0,1.0,83,0.00,,,0.00,VWS V14.01,2013-09-15 06:31:00,
2013-09-14 23:36:00,57.0,52.2,29.82,WNW,299,0.0,1.0,84,0.00,,,0.00,VWS V14.01,2013-09-15 06:36:00,
2013-09-14 23:41:00,56.8,52.0,29.82,WNW,301,0.0,1.0,84,0.00,,,0.00,VWS V14.01,2013-09-15 06:41:00,
2013-09-14 23:46:00,56.7,51.9,29.82,NW,307,0.0,1.0,84,0.00,,,0.00,VWS V14.01,2013-09-15 06:46:00,
2013-09-14 23:51:00,56.6,52.2,29.82,NNW,329,0.0,2.0,85,0.00,,,0.00,VWS V14.01,2013-09-15 06:51:00,
2013-09-14 23:56:00,56.6,51.8,29.81,North,349,0.0,2.0,84,0.00,,,0.00,VWS V14.01,2013-09-15 06:56:00,